sensor_id;sensor_type;location;lat;lon;timestamp;temperature;humidity
45549;DHT22;31270;48.328;10.096;2023-07-24T00:02:09;19.30;99.90
45549;DHT22;31270;48.328;10.096;2023-07-24T00:04:35;19.20;99.90
45549;DHT22;31270;48.328;10.096;2023-07-24T00:07:01;19.20;99.90
45549;DHT22;31270;48.328;10.096;2023-07-24T00:09:26;19.10;99.90
45549;DHT22;31270;48.328;10.096;2023-07-24T00:11:52;19.20;99.90
45549;DHT22;31270;48.328;10.096;2023-07-24T00:14:17;19.10;99.90
45549;DHT22;31270;48.328;10.096;2023-07-24T00:16:43;19.10;99.90
45549;DHT22;31270;48.328;10.096;2023-07-24T00:19:09;19.10;99.90
45549;DHT22;31270;48.328;10.096;2023-07-24T00:21:34;19.00;99.90
45549;DHT22;31270;48.328;10.096;2023-07-24T00:24:00;19.10;99.90
45549;DHT22;31270;48.328;10.096;2023-07-24T00:26:26;19.00;99.90
45549;DHT22;31270;48.328;10.096;2023-07-24T00:28:51;18.90;99.90
45549;DHT22;31270;48.328;10.096;2023-07-24T00:31:17;19.00;99.90
45549;DHT22;31270;48.328;10.096;2023-07-24T00:33:42;18.90;99.90
45549;DHT22;31270;48.328;10.096;2023-07-24T00:36:08;19.00;99.90
45549;DHT22;31270;48.328;10.096;2023-07-24T00:38:34;18.70;99.90
45549;DHT22;31270;48.328;10.096;2023-07-24T00:40:59;19.00;99.90
45549;DHT22;31270;48.328;10.096;2023-07-24T00:43:31;18.90;99.90
45549;DHT22;31270;48.328;10.096;2023-07-24T00:45:57;18.80;99.90
45549;DHT22;31270;48.328;10.096;2023-07-24T00:48:23;18.70;99.90
45549;DHT22;31270;48.328;10.096;2023-07-24T00:50:49;18.90;99.90
45549;DHT22;31270;48.328;10.096;2023-07-24T00:53:17;18.60;99.90
45549;DHT22;31270;48.328;10.096;2023-07-24T00:55:43;18.60;99.90
45549;DHT22;31270;48.328;10.096;2023-07-24T00:58:11;18.60;99.90
45549;DHT22;31270;48.328;10.096;2023-07-24T01:00:40;18.50;99.90
45549;DHT22;31270;48.328;10.096;2023-07-24T01:03:06;18.30;99.90
45549;DHT22;31270;48.328;10.096;2023-07-24T01:05:32;18.30;99.90
45549;DHT22;31270;48.328;10.096;2023-07-24T01:07:58;18.20;99.90
45549;DHT22;31270;48.328;10.096;2023-07-24T01:10:23;18.10;99.90
45549;DHT22;31270;48.328;10.096;2023-07-24T01:12:59;18.10;99.90
45549;DHT22;31270;48.328;10.096;2023-07-24T01:15:44;18.20;99.90
45549;DHT22;31270;48.328;10.096;2023-07-24T01:18:11;18.10;99.90
45549;DHT22;31270;48.328;10.096;2023-07-24T01:20:43;18.00;99.90
45549;DHT22;31270;48.328;10.096;2023-07-24T01:26:00;18.00;99.90
45549;DHT22;31270;48.328;10.096;2023-07-24T01:28:28;18.00;99.90
45549;DHT22;31270;48.328;10.096;2023-07-24T01:30:54;17.70;99.90
45549;DHT22;31270;48.328;10.096;2023-07-24T01:33:21;17.60;99.90
45549;DHT22;31270;48.328;10.096;2023-07-24T01:35:50;17.60;99.90
45549;DHT22;31270;48.328;10.096;2023-07-24T01:38:16;17.60;99.90
45549;DHT22;31270;48.328;10.096;2023-07-24T01:40:43;17.60;99.90
45549;DHT22;31270;48.328;10.096;2023-07-24T01:43:09;17.60;99.90
45549;DHT22;31270;48.328;10.096;2023-07-24T01:45:35;17.70;99.90
45549;DHT22;31270;48.328;10.096;2023-07-24T01:48:05;17.60;99.90
45549;DHT22;31270;48.328;10.096;2023-07-24T01:50:32;17.60;99.90
45549;DHT22;31270;48.328;10.096;2023-07-24T01:52:57;17.60;99.90
45549;DHT22;31270;48.328;10.096;2023-07-24T01:55:23;17.60;99.90
45549;DHT22;31270;48.328;10.096;2023-07-24T01:57:49;17.60;99.90
45549;DHT22;31270;48.328;10.096;2023-07-24T02:00:14;17.60;99.90
45549;DHT22;31270;48.328;10.096;2023-07-24T02:02:40;17.60;99.90
45549;DHT22;31270;48.328;10.096;2023-07-24T02:05:06;17.60;99.90
45549;DHT22;31270;48.328;10.096;2023-07-24T02:07:32;17.60;99.90
45549;DHT22;31270;48.328;10.096;2023-07-24T02:09:57;17.50;99.90
45549;DHT22;31270;48.328;10.096;2023-07-24T02:12:23;17.20;99.90
45549;DHT22;31270;48.328;10.096;2023-07-24T02:14:49;17.20;99.90
45549;DHT22;31270;48.328;10.096;2023-07-24T02:17:17;17.10;99.90
45549;DHT22;31270;48.328;10.096;2023-07-24T02:19:43;17.20;99.90
45549;DHT22;31270;48.328;10.096;2023-07-24T02:22:08;17.20;99.90
45549;DHT22;31270;48.328;10.096;2023-07-24T02:24:34;17.10;99.90
45549;DHT22;31270;48.328;10.096;2023-07-24T02:27:00;17.10;99.90
45549;DHT22;31270;48.328;10.096;2023-07-24T02:29:25;17.10;99.90
45549;DHT22;31270;48.328;10.096;2023-07-24T02:31:53;16.90;99.90
45549;DHT22;31270;48.328;10.096;2023-07-24T02:34:18;17.00;99.90
45549;DHT22;31270;48.328;10.096;2023-07-24T02:36:44;16.90;99.90
45549;DHT22;31270;48.328;10.096;2023-07-24T02:39:10;17.00;99.90
45549;DHT22;31270;48.328;10.096;2023-07-24T02:41:35;17.10;99.90
45549;DHT22;31270;48.328;10.096;2023-07-24T02:44:02;17.20;99.90
45549;DHT22;31270;48.328;10.096;2023-07-24T02:46:29;17.20;99.90
45549;DHT22;31270;48.328;10.096;2023-07-24T02:48:56;17.30;99.90
45549;DHT22;31270;48.328;10.096;2023-07-24T02:51:21;17.30;99.90
45549;DHT22;31270;48.328;10.096;2023-07-24T02:53:47;17.20;99.90
45549;DHT22;31270;48.328;10.096;2023-07-24T02:56:13;17.30;99.90
45549;DHT22;31270;48.328;10.096;2023-07-24T02:58:38;17.30;99.90
45549;DHT22;31270;48.328;10.096;2023-07-24T03:01:05;17.20;99.90
45549;DHT22;31270;48.328;10.096;2023-07-24T03:03:35;17.30;99.90
45549;DHT22;31270;48.328;10.096;2023-07-24T03:06:01;17.20;99.90
45549;DHT22;31270;48.328;10.096;2023-07-24T03:08:27;17.10;99.90
45549;DHT22;31270;48.328;10.096;2023-07-24T03:10:53;17.10;99.90
45549;DHT22;31270;48.328;10.096;2023-07-24T03:13:18;17.30;99.90
45549;DHT22;31270;48.328;10.096;2023-07-24T03:15:52;17.20;99.90
45549;DHT22;31270;48.328;10.096;2023-07-24T03:18:18;17.20;99.90
45549;DHT22;31270;48.328;10.096;2023-07-24T03:20:43;17.10;99.90
45549;DHT22;31270;48.328;10.096;2023-07-24T03:23:09;17.10;99.90
45549;DHT22;31270;48.328;10.096;2023-07-24T03:25:34;17.20;99.90
45549;DHT22;31270;48.328;10.096;2023-07-24T03:28:01;17.20;99.90
45549;DHT22;31270;48.328;10.096;2023-07-24T03:30:26;17.10;99.90
45549;DHT22;31270;48.328;10.096;2023-07-24T03:32:52;17.10;99.90
45549;DHT22;31270;48.328;10.096;2023-07-24T03:35:17;17.10;99.90
45549;DHT22;31270;48.328;10.096;2023-07-24T03:37:43;17.10;99.90
45549;DHT22;31270;48.328;10.096;2023-07-24T03:40:09;16.90;99.90
45549;DHT22;31270;48.328;10.096;2023-07-24T03:42:35;16.90;99.90
45549;DHT22;31270;48.328;10.096;2023-07-24T03:45:00;16.90;99.90
45549;DHT22;31270;48.328;10.096;2023-07-24T03:47:26;17.00;99.90
45549;DHT22;31270;48.328;10.096;2023-07-24T03:49:51;16.90;99.90
45549;DHT22;31270;48.328;10.096;2023-07-24T03:52:17;17.00;99.90
45549;DHT22;31270;48.328;10.096;2023-07-24T03:54:43;17.00;99.90
45549;DHT22;31270;48.328;10.096;2023-07-24T03:57:09;17.10;99.90
45549;DHT22;31270;48.328;10.096;2023-07-24T03:59:35;17.10;99.90
45549;DHT22;31270;48.328;10.096;2023-07-24T04:02:01;17.00;99.90
45549;DHT22;31270;48.328;10.096;2023-07-24T04:04:27;16.90;99.90
45549;DHT22;31270;48.328;10.096;2023-07-24T04:06:53;17.00;99.90
45549;DHT22;31270;48.328;10.096;2023-07-24T04:09:18;17.00;99.90
45549;DHT22;31270;48.328;10.096;2023-07-24T04:11:44;17.10;99.90
45549;DHT22;31270;48.328;10.096;2023-07-24T04:14:10;17.00;99.90
45549;DHT22;31270;48.328;10.096;2023-07-24T04:16:36;17.10;99.90
45549;DHT22;31270;48.328;10.096;2023-07-24T04:19:02;17.00;99.90
45549;DHT22;31270;48.328;10.096;2023-07-24T04:21:28;17.20;99.90
45549;DHT22;31270;48.328;10.096;2023-07-24T04:23:54;17.10;99.90
45549;DHT22;31270;48.328;10.096;2023-07-24T04:26:19;17.00;99.90
45549;DHT22;31270;48.328;10.096;2023-07-24T04:28:45;17.00;99.90
45549;DHT22;31270;48.328;10.096;2023-07-24T04:31:11;17.00;99.90
45549;DHT22;31270;48.328;10.096;2023-07-24T04:33:36;17.20;99.90
45549;DHT22;31270;48.328;10.096;2023-07-24T04:36:02;17.10;99.90
45549;DHT22;31270;48.328;10.096;2023-07-24T04:38:28;17.20;99.90
45549;DHT22;31270;48.328;10.096;2023-07-24T04:40:53;17.20;99.90
45549;DHT22;31270;48.328;10.096;2023-07-24T04:43:19;17.30;99.90
45549;DHT22;31270;48.328;10.096;2023-07-24T04:45:45;17.30;99.90
45549;DHT22;31270;48.328;10.096;2023-07-24T04:48:10;17.40;99.90
45549;DHT22;31270;48.328;10.096;2023-07-24T04:50:36;17.50;99.90
45549;DHT22;31270;48.328;10.096;2023-07-24T04:53:02;17.50;99.90
45549;DHT22;31270;48.328;10.096;2023-07-24T04:55:27;17.60;99.90
45549;DHT22;31270;48.328;10.096;2023-07-24T04:57:53;17.60;99.90
45549;DHT22;31270;48.328;10.096;2023-07-24T05:00:18;17.60;99.90
45549;DHT22;31270;48.328;10.096;2023-07-24T05:02:44;17.70;99.90
45549;DHT22;31270;48.328;10.096;2023-07-24T05:05:10;17.80;99.90
45549;DHT22;31270;48.328;10.096;2023-07-24T05:07:35;17.70;99.90
45549;DHT22;31270;48.328;10.096;2023-07-24T05:10:01;17.80;99.90
45549;DHT22;31270;48.328;10.096;2023-07-24T05:12:26;17.90;99.90
45549;DHT22;31270;48.328;10.096;2023-07-24T05:14:52;18.00;99.90
45549;DHT22;31270;48.328;10.096;2023-07-24T05:17:18;18.10;99.90
45549;DHT22;31270;48.328;10.096;2023-07-24T05:19:43;18.20;99.90
45549;DHT22;31270;48.328;10.096;2023-07-24T05:22:09;18.40;99.90
45549;DHT22;31270;48.328;10.096;2023-07-24T05:24:36;18.40;99.90
45549;DHT22;31270;48.328;10.096;2023-07-24T05:27:03;18.40;99.90
45549;DHT22;31270;48.328;10.096;2023-07-24T05:29:29;18.40;99.90
45549;DHT22;31270;48.328;10.096;2023-07-24T05:31:54;18.40;99.90
45549;DHT22;31270;48.328;10.096;2023-07-24T05:34:21;18.40;99.90
45549;DHT22;31270;48.328;10.096;2023-07-24T05:36:46;18.50;99.90
45549;DHT22;31270;48.328;10.096;2023-07-24T05:39:12;18.60;99.90
45549;DHT22;31270;48.328;10.096;2023-07-24T05:41:38;18.70;99.90
45549;DHT22;31270;48.328;10.096;2023-07-24T05:44:04;18.80;99.90
45549;DHT22;31270;48.328;10.096;2023-07-24T05:46:30;18.90;99.90
45549;DHT22;31270;48.328;10.096;2023-07-24T05:49:02;19.00;99.90
45549;DHT22;31270;48.328;10.096;2023-07-24T05:51:27;19.10;99.90
45549;DHT22;31270;48.328;10.096;2023-07-24T05:53:53;19.00;99.90
45549;DHT22;31270;48.328;10.096;2023-07-24T05:56:19;19.10;99.90
45549;DHT22;31270;48.328;10.096;2023-07-24T05:58:44;19.00;99.90
45549;DHT22;31270;48.328;10.096;2023-07-24T06:01:10;18.90;99.90
45549;DHT22;31270;48.328;10.096;2023-07-24T06:03:36;18.90;99.90
45549;DHT22;31270;48.328;10.096;2023-07-24T06:06:02;18.70;99.90
45549;DHT22;31270;48.328;10.096;2023-07-24T06:08:28;18.60;99.90
45549;DHT22;31270;48.328;10.096;2023-07-24T06:10:53;18.50;99.90
45549;DHT22;31270;48.328;10.096;2023-07-24T06:13:19;18.50;99.90
45549;DHT22;31270;48.328;10.096;2023-07-24T06:15:49;18.40;99.90
45549;DHT22;31270;48.328;10.096;2023-07-24T06:18:15;18.40;99.90
45549;DHT22;31270;48.328;10.096;2023-07-24T06:20:41;18.30;99.90
45549;DHT22;31270;48.328;10.096;2023-07-24T06:23:07;18.20;99.90
45549;DHT22;31270;48.328;10.096;2023-07-24T06:25:33;18.20;99.90
45549;DHT22;31270;48.328;10.096;2023-07-24T06:27:58;18.10;99.90
45549;DHT22;31270;48.328;10.096;2023-07-24T06:30:24;18.00;99.90
45549;DHT22;31270;48.328;10.096;2023-07-24T06:32:50;17.90;99.90
45549;DHT22;31270;48.328;10.096;2023-07-24T06:35:15;17.90;99.90
45549;DHT22;31270;48.328;10.096;2023-07-24T06:37:41;17.90;99.90
45549;DHT22;31270;48.328;10.096;2023-07-24T06:40:07;17.90;99.90
45549;DHT22;31270;48.328;10.096;2023-07-24T06:42:33;17.80;99.90
45549;DHT22;31270;48.328;10.096;2023-07-24T06:44:59;17.80;99.90
45549;DHT22;31270;48.328;10.096;2023-07-24T06:47:25;17.70;99.90
45549;DHT22;31270;48.328;10.096;2023-07-24T06:49:51;17.60;99.90
45549;DHT22;31270;48.328;10.096;2023-07-24T06:52:17;17.50;99.90
45549;DHT22;31270;48.328;10.096;2023-07-24T06:54:43;17.50;99.90
45549;DHT22;31270;48.328;10.096;2023-07-24T06:57:09;17.60;99.90
45549;DHT22;31270;48.328;10.096;2023-07-24T06:59:34;17.50;99.90
45549;DHT22;31270;48.328;10.096;2023-07-24T07:02:00;17.40;99.90
45549;DHT22;31270;48.328;10.096;2023-07-24T07:04:26;17.50;99.90
45549;DHT22;31270;48.328;10.096;2023-07-24T07:06:52;17.40;99.90
45549;DHT22;31270;48.328;10.096;2023-07-24T07:09:17;17.40;99.90
45549;DHT22;31270;48.328;10.096;2023-07-24T07:11:43;17.50;99.90
45549;DHT22;31270;48.328;10.096;2023-07-24T07:14:10;17.40;99.90
45549;DHT22;31270;48.328;10.096;2023-07-24T07:16:36;17.60;99.90
45549;DHT22;31270;48.328;10.096;2023-07-24T07:19:02;17.80;99.90
45549;DHT22;31270;48.328;10.096;2023-07-24T07:21:27;17.60;99.90
45549;DHT22;31270;48.328;10.096;2023-07-24T07:23:53;17.80;99.90
45549;DHT22;31270;48.328;10.096;2023-07-24T07:26:18;17.80;99.90
45549;DHT22;31270;48.328;10.096;2023-07-24T07:28:44;18.00;99.90
45549;DHT22;31270;48.328;10.096;2023-07-24T07:31:13;18.00;99.90
45549;DHT22;31270;48.328;10.096;2023-07-24T07:33:38;18.00;99.90
45549;DHT22;31270;48.328;10.096;2023-07-24T07:36:04;18.00;99.90
45549;DHT22;31270;48.328;10.096;2023-07-24T07:38:31;18.20;99.90
45549;DHT22;31270;48.328;10.096;2023-07-24T07:40:57;18.30;99.90
45549;DHT22;31270;48.328;10.096;2023-07-24T07:43:22;18.40;99.90
45549;DHT22;31270;48.328;10.096;2023-07-24T07:45:48;18.40;99.90
45549;DHT22;31270;48.328;10.096;2023-07-24T07:48:14;18.50;99.90
45549;DHT22;31270;48.328;10.096;2023-07-24T07:50:39;18.60;99.90
45549;DHT22;31270;48.328;10.096;2023-07-24T07:53:05;18.70;99.90
45549;DHT22;31270;48.328;10.096;2023-07-24T07:55:31;18.80;99.90
45549;DHT22;31270;48.328;10.096;2023-07-24T07:57:56;19.00;99.90
45549;DHT22;31270;48.328;10.096;2023-07-24T08:00:22;19.30;99.90
45549;DHT22;31270;48.328;10.096;2023-07-24T08:02:48;19.40;99.90
45549;DHT22;31270;48.328;10.096;2023-07-24T08:05:14;19.60;99.90
45549;DHT22;31270;48.328;10.096;2023-07-24T08:07:41;19.60;99.90
45549;DHT22;31270;48.328;10.096;2023-07-24T08:10:07;19.70;99.90
45549;DHT22;31270;48.328;10.096;2023-07-24T08:12:32;19.80;99.90
45549;DHT22;31270;48.328;10.096;2023-07-24T08:15:01;20.00;99.90
45549;DHT22;31270;48.328;10.096;2023-07-24T08:17:27;20.20;99.90
45549;DHT22;31270;48.328;10.096;2023-07-24T08:19:58;20.30;99.90
45549;DHT22;31270;48.328;10.096;2023-07-24T08:22:24;20.30;99.90
45549;DHT22;31270;48.328;10.096;2023-07-24T08:24:50;20.40;99.90
45549;DHT22;31270;48.328;10.096;2023-07-24T08:27:17;20.50;99.90
45549;DHT22;31270;48.328;10.096;2023-07-24T08:29:44;20.70;99.90
45549;DHT22;31270;48.328;10.096;2023-07-24T08:32:09;21.20;99.90
45549;DHT22;31270;48.328;10.096;2023-07-24T08:34:35;21.50;99.90
45549;DHT22;31270;48.328;10.096;2023-07-24T08:37:04;21.90;99.90
45549;DHT22;31270;48.328;10.096;2023-07-24T08:39:36;22.00;99.90
45549;DHT22;31270;48.328;10.096;2023-07-24T08:42:10;22.30;99.90
45549;DHT22;31270;48.328;10.096;2023-07-24T08:44:36;22.50;99.90
45549;DHT22;31270;48.328;10.096;2023-07-24T08:47:03;22.90;99.90
45549;DHT22;31270;48.328;10.096;2023-07-24T08:49:30;23.10;99.90
45549;DHT22;31270;48.328;10.096;2023-07-24T08:51:58;23.20;99.90
45549;DHT22;31270;48.328;10.096;2023-07-24T08:54:24;23.10;99.90
45549;DHT22;31270;48.328;10.096;2023-07-24T08:56:52;23.00;99.90
45549;DHT22;31270;48.328;10.096;2023-07-24T08:59:19;22.80;99.90
45549;DHT22;31270;48.328;10.096;2023-07-24T09:01:45;22.70;99.90
45549;DHT22;31270;48.328;10.096;2023-07-24T09:04:10;22.60;99.90
45549;DHT22;31270;48.328;10.096;2023-07-24T09:06:37;22.60;99.90
45549;DHT22;31270;48.328;10.096;2023-07-24T09:09:12;22.80;99.90
45549;DHT22;31270;48.328;10.096;2023-07-24T09:11:53;23.30;99.90
45549;DHT22;31270;48.328;10.096;2023-07-24T09:14:23;23.90;99.90
45549;DHT22;31270;48.328;10.096;2023-07-24T09:16:49;24.40;99.90
45549;DHT22;31270;48.328;10.096;2023-07-24T09:19:19;24.60;99.90
45549;DHT22;31270;48.328;10.096;2023-07-24T09:21:45;24.90;99.90
45549;DHT22;31270;48.328;10.096;2023-07-24T09:24:11;24.70;99.90
45549;DHT22;31270;48.328;10.096;2023-07-24T09:26:51;24.50;99.90
45549;DHT22;31270;48.328;10.096;2023-07-24T09:29:18;24.40;99.90
45549;DHT22;31270;48.328;10.096;2023-07-24T09:31:44;24.10;99.90
45549;DHT22;31270;48.328;10.096;2023-07-24T09:34:15;23.90;99.90
45549;DHT22;31270;48.328;10.096;2023-07-24T09:36:41;23.70;99.90
45549;DHT22;31270;48.328;10.096;2023-07-24T09:39:07;23.50;99.90
45549;DHT22;31270;48.328;10.096;2023-07-24T09:41:36;23.40;99.90
45549;DHT22;31270;48.328;10.096;2023-07-24T09:44:01;23.20;99.90
45549;DHT22;31270;48.328;10.096;2023-07-24T09:46:28;23.20;99.90
45549;DHT22;31270;48.328;10.096;2023-07-24T09:48:56;23.20;99.90
45549;DHT22;31270;48.328;10.096;2023-07-24T09:51:22;23.30;99.90
45549;DHT22;31270;48.328;10.096;2023-07-24T09:54:38;23.40;99.90
45549;DHT22;31270;48.328;10.096;2023-07-24T09:56:44;23.70;99.90
45549;DHT22;31270;48.328;10.096;2023-07-24T09:59:13;23.80;99.90
45549;DHT22;31270;48.328;10.096;2023-07-24T10:01:38;24.00;99.90
45549;DHT22;31270;48.328;10.096;2023-07-24T10:04:05;24.00;99.90
45549;DHT22;31270;48.328;10.096;2023-07-24T10:06:33;23.90;99.90
45549;DHT22;31270;48.328;10.096;2023-07-24T10:08:59;23.90;99.90
45549;DHT22;31270;48.328;10.096;2023-07-24T10:11:26;23.90;99.90
45549;DHT22;31270;48.328;10.096;2023-07-24T10:13:52;24.00;99.90
45549;DHT22;31270;48.328;10.096;2023-07-24T10:16:25;24.30;99.90
45549;DHT22;31270;48.328;10.096;2023-07-24T10:18:51;24.40;99.90
45549;DHT22;31270;48.328;10.096;2023-07-24T10:21:16;24.50;99.90
45549;DHT22;31270;48.328;10.096;2023-07-24T10:23:43;24.80;99.90
45549;DHT22;31270;48.328;10.096;2023-07-24T10:26:10;25.00;99.90
45549;DHT22;31270;48.328;10.096;2023-07-24T10:28:38;25.20;99.90
45549;DHT22;31270;48.328;10.096;2023-07-24T10:31:05;25.60;99.90
45549;DHT22;31270;48.328;10.096;2023-07-24T10:33:35;26.10;99.90
45549;DHT22;31270;48.328;10.096;2023-07-24T10:36:08;26.30;99.90
45549;DHT22;31270;48.328;10.096;2023-07-24T10:38:42;26.30;99.90
45549;DHT22;31270;48.328;10.096;2023-07-24T10:41:10;26.70;99.90
45549;DHT22;31270;48.328;10.096;2023-07-24T10:43:49;26.90;99.90
45549;DHT22;31270;48.328;10.096;2023-07-24T10:46:17;26.90;99.90
45549;DHT22;31270;48.328;10.096;2023-07-24T10:48:46;26.70;99.90
45549;DHT22;31270;48.328;10.096;2023-07-24T10:51:12;27.00;99.90
45549;DHT22;31270;48.328;10.096;2023-07-24T10:53:45;26.80;99.90
45549;DHT22;31270;48.328;10.096;2023-07-24T10:56:11;27.10;99.90
45549;DHT22;31270;48.328;10.096;2023-07-24T10:58:40;27.40;99.90
45549;DHT22;31270;48.328;10.096;2023-07-24T11:01:07;27.60;99.90
45549;DHT22;31270;48.328;10.096;2023-07-24T11:03:35;27.70;99.90
45549;DHT22;31270;48.328;10.096;2023-07-24T11:06:02;27.80;99.90
45549;DHT22;31270;48.328;10.096;2023-07-24T11:08:28;27.40;99.90
45549;DHT22;31270;48.328;10.096;2023-07-24T11:10:56;27.20;99.90
45549;DHT22;31270;48.328;10.096;2023-07-24T11:13:28;26.90;99.90
45549;DHT22;31270;48.328;10.096;2023-07-24T11:15:54;26.30;99.90
45549;DHT22;31270;48.328;10.096;2023-07-24T11:18:21;25.50;99.90
45549;DHT22;31270;48.328;10.096;2023-07-24T11:20:55;25.00;99.90
45549;DHT22;31270;48.328;10.096;2023-07-24T11:23:22;24.30;99.90
45549;DHT22;31270;48.328;10.096;2023-07-24T11:25:52;23.60;99.90
45549;DHT22;31270;48.328;10.096;2023-07-24T11:28:19;22.30;99.90
45549;DHT22;31270;48.328;10.096;2023-07-24T11:30:45;21.90;99.90
45549;DHT22;31270;48.328;10.096;2023-07-24T11:33:12;21.60;99.90
45549;DHT22;31270;48.328;10.096;2023-07-24T11:35:40;21.30;99.90
45549;DHT22;31270;48.328;10.096;2023-07-24T11:38:08;21.00;99.90
45549;DHT22;31270;48.328;10.096;2023-07-24T11:40:40;20.90;99.90
45549;DHT22;31270;48.328;10.096;2023-07-24T11:43:22;20.70;99.90
45549;DHT22;31270;48.328;10.096;2023-07-24T11:45:49;20.60;99.90
45549;DHT22;31270;48.328;10.096;2023-07-24T11:48:18;20.50;99.90
45549;DHT22;31270;48.328;10.096;2023-07-24T11:50:47;20.50;99.90
45549;DHT22;31270;48.328;10.096;2023-07-24T11:55:49;20.50;99.90
45549;DHT22;31270;48.328;10.096;2023-07-24T11:58:16;20.50;99.90
45549;DHT22;31270;48.328;10.096;2023-07-24T12:00:42;20.60;99.90
45549;DHT22;31270;48.328;10.096;2023-07-24T12:03:08;20.40;99.90
45549;DHT22;31270;48.328;10.096;2023-07-24T12:05:41;20.50;99.90
45549;DHT22;31270;48.328;10.096;2023-07-24T12:08:07;20.50;99.90
45549;DHT22;31270;48.328;10.096;2023-07-24T12:10:38;20.50;99.90
45549;DHT22;31270;48.328;10.096;2023-07-24T12:13:04;20.50;99.90
45549;DHT22;31270;48.328;10.096;2023-07-24T12:15:31;20.40;99.90
45549;DHT22;31270;48.328;10.096;2023-07-24T12:17:58;20.40;99.90
45549;DHT22;31270;48.328;10.096;2023-07-24T12:20:24;20.40;99.90
45549;DHT22;31270;48.328;10.096;2023-07-24T12:22:49;20.40;99.90
45549;DHT22;31270;48.328;10.096;2023-07-24T12:25:15;20.40;99.90
45549;DHT22;31270;48.328;10.096;2023-07-24T12:27:41;20.40;99.90
45549;DHT22;31270;48.328;10.096;2023-07-24T12:30:08;20.50;99.90
45549;DHT22;31270;48.328;10.096;2023-07-24T12:32:34;20.30;99.90
45549;DHT22;31270;48.328;10.096;2023-07-24T12:35:00;20.10;99.90
45549;DHT22;31270;48.328;10.096;2023-07-24T12:37:26;20.20;99.90
45549;DHT22;31270;48.328;10.096;2023-07-24T12:39:52;20.20;99.90
45549;DHT22;31270;48.328;10.096;2023-07-24T12:42:17;19.90;99.90
45549;DHT22;31270;48.328;10.096;2023-07-24T12:44:43;19.70;99.90
45549;DHT22;31270;48.328;10.096;2023-07-24T12:47:10;19.60;99.90
45549;DHT22;31270;48.328;10.096;2023-07-24T12:49:36;19.60;99.90
45549;DHT22;31270;48.328;10.096;2023-07-24T12:52:02;19.60;99.90
45549;DHT22;31270;48.328;10.096;2023-07-24T12:54:28;19.50;99.90
45549;DHT22;31270;48.328;10.096;2023-07-24T12:56:53;19.30;99.90
45549;DHT22;31270;48.328;10.096;2023-07-24T12:59:20;19.40;99.90
45549;DHT22;31270;48.328;10.096;2023-07-24T13:01:46;19.10;99.90
45549;DHT22;31270;48.328;10.096;2023-07-24T13:04:12;19.00;99.90
45549;DHT22;31270;48.328;10.096;2023-07-24T13:06:37;18.90;99.90
45549;DHT22;31270;48.328;10.096;2023-07-24T13:09:03;18.90;99.90
45549;DHT22;31270;48.328;10.096;2023-07-24T13:11:29;18.90;99.90
45549;DHT22;31270;48.328;10.096;2023-07-24T13:13:55;19.10;99.90
45549;DHT22;31270;48.328;10.096;2023-07-24T13:16:21;19.30;99.90
45549;DHT22;31270;48.328;10.096;2023-07-24T13:18:47;19.70;99.90
45549;DHT22;31270;48.328;10.096;2023-07-24T13:21:13;19.70;99.90
45549;DHT22;31270;48.328;10.096;2023-07-24T13:23:42;19.90;99.90
45549;DHT22;31270;48.328;10.096;2023-07-24T13:26:08;20.20;99.90
45549;DHT22;31270;48.328;10.096;2023-07-24T13:28:39;20.40;99.90
45549;DHT22;31270;48.328;10.096;2023-07-24T13:31:14;20.30;99.90
45549;DHT22;31270;48.328;10.096;2023-07-24T13:33:40;20.20;99.90
45549;DHT22;31270;48.328;10.096;2023-07-24T13:36:06;20.20;99.90
45549;DHT22;31270;48.328;10.096;2023-07-24T13:38:34;20.30;99.90
45549;DHT22;31270;48.328;10.096;2023-07-24T13:41:00;20.10;99.90
45549;DHT22;31270;48.328;10.096;2023-07-24T13:43:26;20.30;99.90
45549;DHT22;31270;48.328;10.096;2023-07-24T13:45:51;20.20;99.90
45549;DHT22;31270;48.328;10.096;2023-07-24T13:48:18;20.20;99.90
45549;DHT22;31270;48.328;10.096;2023-07-24T13:50:44;20.20;99.90
45549;DHT22;31270;48.328;10.096;2023-07-24T13:53:09;20.30;99.90
45549;DHT22;31270;48.328;10.096;2023-07-24T13:55:35;20.70;99.90
45549;DHT22;31270;48.328;10.096;2023-07-24T13:58:00;20.80;99.90
45549;DHT22;31270;48.328;10.096;2023-07-24T14:00:26;21.20;99.90
45549;DHT22;31270;48.328;10.096;2023-07-24T14:02:52;21.30;99.90
45549;DHT22;31270;48.328;10.096;2023-07-24T14:05:17;21.30;99.90
45549;DHT22;31270;48.328;10.096;2023-07-24T14:07:43;21.30;99.90
45549;DHT22;31270;48.328;10.096;2023-07-24T14:10:10;21.40;99.90
45549;DHT22;31270;48.328;10.096;2023-07-24T14:12:36;21.60;99.90
45549;DHT22;31270;48.328;10.096;2023-07-24T14:15:01;21.60;99.90
45549;DHT22;31270;48.328;10.096;2023-07-24T14:17:27;21.50;99.90
45549;DHT22;31270;48.328;10.096;2023-07-24T14:19:53;21.50;99.90
45549;DHT22;31270;48.328;10.096;2023-07-24T14:22:19;21.50;99.90
45549;DHT22;31270;48.328;10.096;2023-07-24T14:24:45;21.50;99.90
45549;DHT22;31270;48.328;10.096;2023-07-24T14:27:13;21.40;99.90
45549;DHT22;31270;48.328;10.096;2023-07-24T14:29:38;21.40;99.90
45549;DHT22;31270;48.328;10.096;2023-07-24T14:32:05;21.10;99.90
45549;DHT22;31270;48.328;10.096;2023-07-24T14:34:30;21.00;99.90
45549;DHT22;31270;48.328;10.096;2023-07-24T14:36:56;21.10;99.90
45549;DHT22;31270;48.328;10.096;2023-07-24T14:39:21;21.30;99.90
45549;DHT22;31270;48.328;10.096;2023-07-24T14:41:47;21.30;99.90
45549;DHT22;31270;48.328;10.096;2023-07-24T14:44:13;21.40;99.90
45549;DHT22;31270;48.328;10.096;2023-07-24T14:46:38;21.50;99.90
45549;DHT22;31270;48.328;10.096;2023-07-24T14:49:04;21.40;99.90
45549;DHT22;31270;48.328;10.096;2023-07-24T14:51:29;21.50;99.90
45549;DHT22;31270;48.328;10.096;2023-07-24T14:53:55;21.40;99.90
45549;DHT22;31270;48.328;10.096;2023-07-24T14:56:21;21.40;99.90
45549;DHT22;31270;48.328;10.096;2023-07-24T14:58:46;21.40;99.90
45549;DHT22;31270;48.328;10.096;2023-07-24T15:01:13;21.40;99.90
45549;DHT22;31270;48.328;10.096;2023-07-24T15:03:38;21.20;99.90
45549;DHT22;31270;48.328;10.096;2023-07-24T15:06:04;21.30;99.90
45549;DHT22;31270;48.328;10.096;2023-07-24T15:08:32;21.30;99.90
45549;DHT22;31270;48.328;10.096;2023-07-24T15:10:58;21.30;99.90
45549;DHT22;31270;48.328;10.096;2023-07-24T15:13:23;21.20;99.90
45549;DHT22;31270;48.328;10.096;2023-07-24T15:15:49;21.10;99.90
45549;DHT22;31270;48.328;10.096;2023-07-24T15:18:15;20.70;99.90